Time;durP1;ratioP1;P1;durP2;ratioP2;P2;SDS_P1;SDS_P2;PMS_P1;PMS_P2;Temp;Humidity;BMP_temperature;BMP_pressure;BME280_temperature;BME280_humidity;BME280_pressure;Samples;Min_cycle;Max_cycle;Signal;HPM_P1;HPM_P2
2023/12/22 00:01:05;;;;;;;19.98;3.20;;;;;;;;;;5001809;28;20230;-76
2023/12/22 00:03:31;;;;;;;25.13;3.10;;;;;;;;;;5005385;28;20205;-76
2023/12/22 00:05:56;;;;;;;26.47;4.37;;;;;;;;;;5005339;28;20194;-76
2023/12/22 00:08:23;;;;;;;25.08;2.95;;;;;;;;;;4987144;28;20832;-75
2023/12/22 00:10:49;;;;;;;22.33;3.13;;;;;;;;;;5000201;28;20190;-75
2023/12/22 00:13:14;;;;;;;17.45;2.75;;;;;;;;;;5005857;28;20271;-75
2023/12/22 00:15:42;;;;;;;20.48;4.10;;;;;;;;;;5003762;28;20245;-74
2023/12/22 00:18:07;;;;;;;21.30;3.03;;;;;;;;;;5005571;28;20741;-76
2023/12/22 00:20:33;;;;;;;18.50;3.17;;;;;;;;;;5019029;28;20210;-74
2023/12/22 00:22:58;;;;;;;20.65;3.03;;;;;;;;;;5009588;28;20231;-74
2023/12/22 00:25:24;;;;;;;28.17;3.50;;;;;;;;;;5022050;28;20190;-76
2023/12/22 00:27:49;;;;;;;23.03;3.87;;;;;;;;;;5008372;28;20574;-74
2023/12/22 00:30:14;;;;;;;18.92;2.58;;;;;;;;;;5006352;28;20186;-74
2023/12/22 00:32:40;;;;;;;22.35;2.70;;;;;;;;;;5011326;28;20589;-75
2023/12/22 00:35:06;;;;;;;21.08;2.80;;;;;;;;;;5022712;28;20256;-75
2023/12/22 00:37:31;;;;;;;17.90;2.10;;;;;;;;;;5025313;28;20805;-75
2023/12/22 00:39:56;;;;;;;19.03;3.03;;;;;;;;;;5005434;28;20245;-72
2023/12/22 00:42:22;;;;;;;16.73;3.10;;;;;;;;;;5025232;28;20232;-73
2023/12/22 00:44:47;;;;;;;18.50;2.93;;;;;;;;;;5010871;28;20668;-74
2023/12/22 00:47:13;;;;;;;21.90;2.50;;;;;;;;;;5010167;28;20190;-74
2023/12/22 00:49:38;;;;;;;18.00;2.53;;;;;;;;;;4990139;28;20205;-73
2023/12/22 00:52:04;;;;;;;22.83;3.30;;;;;;;;;;5025303;28;20190;-75
2023/12/22 00:54:31;;;;;;;18.40;2.43;;;;;;;;;;5025626;28;20611;-75
2023/12/22 00:56:57;;;;;;;21.13;2.93;;;;;;;;;;5011680;28;20502;-74
2023/12/22 00:59:23;;;;;;;20.37;2.40;;;;;;;;;;5027588;28;20216;-74
2023/12/22 01:01:49;;;;;;;20.50;2.70;;;;;;;;;;5027710;28;20653;-74
2023/12/22 01:04:14;;;;;;;21.27;2.57;;;;;;;;;;5007499;28;20182;-75
2023/12/22 01:06:40;;;;;;;12.47;2.53;;;;;;;;;;5026832;28;20254;-75
2023/12/22 01:09:06;;;;;;;13.90;2.20;;;;;;;;;;5014555;28;20270;-74
2023/12/22 01:11:31;;;;;;;18.10;2.60;;;;;;;;;;5024269;28;20229;-74
2023/12/22 01:13:56;;;;;;;16.57;2.30;;;;;;;;;;5019833;28;20186;-73
2023/12/22 01:16:23;;;;;;;21.20;2.50;;;;;;;;;;5022389;28;20233;-73
2023/12/22 01:18:50;;;;;;;13.53;2.03;;;;;;;;;;5004823;28;20238;-73
2023/12/22 01:21:16;;;;;;;16.43;2.17;;;;;;;;;;5006124;28;20661;-73
2023/12/22 01:23:41;;;;;;;11.00;2.00;;;;;;;;;;5007157;28;20195;-73
2023/12/22 01:26:07;;;;;;;16.13;2.37;;;;;;;;;;5003008;28;20285;-73
2023/12/22 01:28:33;;;;;;;15.87;2.07;;;;;;;;;;5005686;28;20195;-74
2023/12/22 01:30:59;;;;;;;19.70;2.23;;;;;;;;;;5002433;28;20209;-75
2023/12/22 01:33:24;;;;;;;19.83;2.47;;;;;;;;;;5005227;28;20635;-73
2023/12/22 01:35:50;;;;;;;21.17;2.80;;;;;;;;;;4992981;28;20190;-72
2023/12/22 01:38:15;;;;;;;20.30;2.87;;;;;;;;;;5001846;28;20190;-74
2023/12/22 01:40:41;;;;;;;14.93;2.60;;;;;;;;;;5002365;28;20246;-74
2023/12/22 01:43:06;;;;;;;19.57;2.10;;;;;;;;;;5014054;28;20681;-74
2023/12/22 01:45:31;;;;;;;20.27;3.33;;;;;;;;;;4990208;28;20192;-72
2023/12/22 01:47:57;;;;;;;14.37;2.07;;;;;;;;;;5001745;28;20179;-74
2023/12/22 01:50:23;;;;;;;14.80;2.50;;;;;;;;;;5023156;28;20290;-73
2023/12/22 01:52:49;;;;;;;20.20;2.97;;;;;;;;;;5008764;28;20260;-73
2023/12/22 01:55:16;;;;;;;20.30;2.83;;;;;;;;;;5005471;28;20270;-73
2023/12/22 01:57:43;;;;;;;20.77;3.73;;;;;;;;;;5009642;28;20549;-73
2023/12/22 02:00:09;;;;;;;15.17;2.30;;;;;;;;;;5002905;28;20393;-76
2023/12/22 02:02:36;;;;;;;19.97;2.77;;;;;;;;;;5011086;28;20561;-74
2023/12/22 02:05:01;;;;;;;17.80;3.00;;;;;;;;;;4991397;28;20403;-74
2023/12/22 02:07:27;;;;;;;22.73;2.97;;;;;;;;;;5007866;28;20599;-73
2023/12/22 02:09:53;;;;;;;14.07;2.80;;;;;;;;;;5003329;28;20271;-75
2023/12/22 02:12:19;;;;;;;17.60;2.63;;;;;;;;;;5011546;28;20269;-73
2023/12/22 02:14:44;;;;;;;18.17;2.70;;;;;;;;;;5009201;28;20190;-74
2023/12/22 02:17:22;;;;;;;13.60;2.90;;;;;;;;;;5003074;28;20203;-73
2023/12/22 02:19:48;;;;;;;14.87;1.90;;;;;;;;;;5024932;28;20233;-75
2023/12/22 02:22:14;;;;;;;9.27;1.77;;;;;;;;;;5028950;28;20205;-75
2023/12/22 02:24:41;;;;;;;10.77;1.50;;;;;;;;;;5030294;28;20190;-75
2023/12/22 02:27:33;;;;;;;10.60;1.70;;;;;;;;;;5029871;28;20186;-75
2023/12/22 02:30:05;;;;;;;7.60;1.20;;;;;;;;;;5003911;28;20189;-75
2023/12/22 02:32:34;;;;;;;13.00;1.30;;;;;;;;;;4993354;28;20195;-74
2023/12/22 02:35:08;;;;;;;11.47;1.60;;;;;;;;;;5028055;28;20198;-74
2023/12/22 02:37:35;;;;;;;10.33;1.40;;;;;;;;;;5023255;28;20193;-75
2023/12/22 02:40:02;;;;;;;13.33;1.30;;;;;;;;;;5011883;28;20198;-74
2023/12/22 02:42:30;;;;;;;7.77;1.10;;;;;;;;;;5011819;28;20198;-74
2023/12/22 02:44:58;;;;;;;7.13;1.40;;;;;;;;;;5027471;28;20270;-75
2023/12/22 02:47:24;;;;;;;8.30;1.27;;;;;;;;;;5029625;28;20271;-75
2023/12/22 02:49:50;;;;;;;12.47;1.37;;;;;;;;;;5029804;28;20599;-76
2023/12/22 02:52:15;;;;;;;8.00;0.93;;;;;;;;;;5011908;28;20277;-74
2023/12/22 02:54:41;;;;;;;5.13;0.90;;;;;;;;;;5035368;28;20190;-75
2023/12/22 02:57:09;;;;;;;6.80;0.80;;;;;;;;;;5028501;28;20182;-75
2023/12/22 02:59:34;;;;;;;5.37;0.93;;;;;;;;;;5010042;28;20229;-75
2023/12/22 03:02:00;;;;;;;4.97;0.80;;;;;;;;;;5018966;28;20268;-75
2023/12/22 03:04:26;;;;;;;6.73;0.90;;;;;;;;;;5019563;28;20191;-74
2023/12/22 03:06:51;;;;;;;5.40;0.70;;;;;;;;;;5025651;28;20194;-73
2023/12/22 03:09:16;;;;;;;6.27;0.60;;;;;;;;;;5021691;28;20187;-75
2023/12/22 03:11:42;;;;;;;9.50;0.90;;;;;;;;;;5013277;28;20225;-75
2023/12/22 03:14:08;;;;;;;9.73;1.27;;;;;;;;;;4999586;28;20609;-75
2023/12/22 03:16:34;;;;;;;8.73;0.77;;;;;;;;;;5017655;28;20676;-75
2023/12/22 03:18:59;;;;;;;11.87;2.40;;;;;;;;;;5015381;28;20219;-75
2023/12/22 03:21:25;;;;;;;7.50;0.93;;;;;;;;;;5024926;28;20254;-74
2023/12/22 03:23:50;;;;;;;7.63;1.13;;;;;;;;;;5029159;28;20226;-74
2023/12/22 03:26:16;;;;;;;18.03;1.67;;;;;;;;;;5021367;28;20190;-75
2023/12/22 03:28:41;;;;;;;8.83;1.20;;;;;;;;;;5029803;28;20182;-75
2023/12/22 03:31:07;;;;;;;9.30;1.23;;;;;;;;;;5028644;28;20182;-75
2023/12/22 03:33:33;;;;;;;14.83;1.10;;;;;;;;;;5006284;28;20187;-74
2023/12/22 03:35:58;;;;;;;11.53;1.30;;;;;;;;;;5028948;28;20197;-75
2023/12/22 03:38:24;;;;;;;6.67;1.20;;;;;;;;;;5029158;28;20479;-74
2023/12/22 03:40:49;;;;;;;6.33;0.90;;;;;;;;;;5011803;28;20221;-75
2023/12/22 03:43:14;;;;;;;7.93;1.13;;;;;;;;;;5000042;28;20194;-75
2023/12/22 03:45:40;;;;;;;11.23;1.23;;;;;;;;;;5011493;28;20198;-75
2023/12/22 03:48:06;;;;;;;10.70;1.30;;;;;;;;;;5010109;28;20630;-74
2023/12/22 03:50:31;;;;;;;11.33;1.60;;;;;;;;;;5030145;28;20585;-74
2023/12/22 03:52:56;;;;;;;14.20;1.73;;;;;;;;;;5023989;28;20198;-75
2023/12/22 03:55:22;;;;;;;11.03;1.73;;;;;;;;;;5027276;28;20664;-74
2023/12/22 03:57:47;;;;;;;9.53;1.60;;;;;;;;;;5008051;28;20251;-74
2023/12/22 04:00:14;;;;;;;12.30;1.73;;;;;;;;;;5025456;28;20301;-75
2023/12/22 04:02:40;;;;;;;10.80;1.37;;;;;;;;;;5032498;28;20261;-75
2023/12/22 04:05:05;;;;;;;12.60;2.10;;;;;;;;;;5027743;28;20285;-74
2023/12/22 04:07:31;;;;;;;13.70;1.63;;;;;;;;;;5026185;28;20193;-75
2023/12/22 04:09:56;;;;;;;8.57;1.13;;;;;;;;;;5011218;28;20670;-75
2023/12/22 04:12:21;;;;;;;16.20;2.43;;;;;;;;;;5010009;28;20282;-75
2023/12/22 04:14:47;;;;;;;11.77;2.20;;;;;;;;;;5008624;28;20271;-75
2023/12/22 04:17:12;;;;;;;13.80;1.17;;;;;;;;;;5006899;28;20307;-75
2023/12/22 04:19:38;;;;;;;13.40;1.20;;;;;;;;;;5005890;28;20254;-75
2023/12/22 04:22:03;;;;;;;11.77;1.47;;;;;;;;;;5014445;28;20617;-75
2023/12/22 04:24:29;;;;;;;9.07;1.63;;;;;;;;;;5017093;28;20194;-75
2023/12/22 04:26:54;;;;;;;9.40;1.40;;;;;;;;;;5020910;28;20197;-74
2023/12/22 04:29:20;;;;;;;10.13;1.30;;;;;;;;;;5007172;28;20272;-75
2023/12/22 04:31:45;;;;;;;14.80;1.50;;;;;;;;;;5007493;28;20182;-75
2023/12/22 04:34:14;;;;;;;15.67;1.50;;;;;;;;;;5005902;28;20198;-75
2023/12/22 04:36:39;;;;;;;16.73;2.00;;;;;;;;;;5011185;28;20189;-74
2023/12/22 04:39:04;;;;;;;14.10;1.80;;;;;;;;;;5010547;28;20291;-75
2023/12/22 04:41:30;;;;;;;20.30;2.23;;;;;;;;;;5028132;28;20197;-75
2023/12/22 04:43:55;;;;;;;21.43;2.53;;;;;;;;;;4994575;28;20240;-76
2023/12/22 04:46:21;;;;;;;13.33;1.70;;;;;;;;;;5026568;28;20197;-75
2023/12/22 04:48:46;;;;;;;14.43;2.20;;;;;;;;;;5017677;28;20265;-75
2023/12/22 04:51:12;;;;;;;13.20;2.27;;;;;;;;;;5026331;28;20217;-75
2023/12/22 04:53:37;;;;;;;17.23;2.00;;;;;;;;;;5008282;28;20220;-75
2023/12/22 04:56:03;;;;;;;19.23;2.23;;;;;;;;;;5010796;28;20190;-74
2023/12/22 04:58:29;;;;;;;12.47;1.97;;;;;;;;;;5001524;28;20277;-74
2023/12/22 05:00:54;;;;;;;13.77;2.17;;;;;;;;;;5027535;28;20186;-75
2023/12/22 05:03:19;;;;;;;17.27;2.07;;;;;;;;;;5011401;28;20597;-75
2023/12/22 05:05:45;;;;;;;15.33;2.47;;;;;;;;;;5007098;28;20195;-76
2023/12/22 05:08:10;;;;;;;17.43;2.20;;;;;;;;;;5015726;28;20198;-74
2023/12/22 05:10:36;;;;;;;12.40;2.00;;;;;;;;;;5026192;28;20547;-74
2023/12/22 05:13:01;;;;;;;20.57;2.77;;;;;;;;;;5034633;28;20198;-75
2023/12/22 05:15:27;;;;;;;14.63;1.87;;;;;;;;;;5025608;28;20201;-75
2023/12/22 05:17:52;;;;;;;15.73;2.30;;;;;;;;;;5022627;28;20865;-76
2023/12/22 05:20:18;;;;;;;19.90;2.43;;;;;;;;;;5021765;28;20660;-75
2023/12/22 05:22:43;;;;;;;16.93;2.17;;;;;;;;;;5013937;28;20190;-75
2023/12/22 05:25:10;;;;;;;21.73;2.60;;;;;;;;;;4996671;28;20292;-75
2023/12/22 05:27:35;;;;;;;18.57;2.70;;;;;;;;;;5010129;28;20217;-75
2023/12/22 05:30:03;;;;;;;21.20;3.13;;;;;;;;;;5024778;28;20186;-73
2023/12/22 05:32:29;;;;;;;19.80;2.40;;;;;;;;;;5024726;28;20202;-75
2023/12/22 05:34:55;;;;;;;17.03;2.03;;;;;;;;;;5030235;28;20194;-75
2023/12/22 05:37:20;;;;;;;17.13;2.03;;;;;;;;;;5005793;28;20199;-75
2023/12/22 05:39:45;;;;;;;17.70;2.57;;;;;;;;;;5012923;28;20269;-75
2023/12/22 05:42:11;;;;;;;22.30;2.63;;;;;;;;;;5009366;28;20236;-75
2023/12/22 05:44:38;;;;;;;16.57;2.07;;;;;;;;;;5000284;28;20277;-74
2023/12/22 05:47:04;;;;;;;20.43;2.40;;;;;;;;;;5019557;28;20278;-74
2023/12/22 05:49:30;;;;;;;19.03;2.73;;;;;;;;;;5030968;28;20272;-74
2023/12/22 05:51:56;;;;;;;23.53;3.07;;;;;;;;;;5032167;28;20185;-74
2023/12/22 05:54:21;;;;;;;25.27;2.90;;;;;;;;;;5030736;28;20221;-75
2023/12/22 05:56:47;;;;;;;19.83;2.70;;;;;;;;;;5012921;28;20194;-75
2023/12/22 05:59:12;;;;;;;21.17;2.47;;;;;;;;;;5023921;28;20692;-74
2023/12/22 06:01:38;;;;;;;19.17;2.60;;;;;;;;;;5024320;28;20190;-76
2023/12/22 06:04:03;;;;;;;25.27;3.63;;;;;;;;;;5005087;28;20526;-74
2023/12/22 06:06:29;;;;;;;18.73;2.27;;;;;;;;;;5020566;28;20190;-74
2023/12/22 06:08:55;;;;;;;18.63;2.63;;;;;;;;;;5032245;28;20187;-75
2023/12/22 06:11:22;;;;;;;15.73;2.70;;;;;;;;;;5027735;28;20300;-75
2023/12/22 06:13:47;;;;;;;19.30;2.53;;;;;;;;;;5032360;28;20760;-73
2023/12/22 06:16:14;;;;;;;18.87;2.83;;;;;;;;;;5014153;28;20280;-73
2023/12/22 06:18:40;;;;;;;16.43;2.83;;;;;;;;;;5028645;28;20308;-74
2023/12/22 06:21:06;;;;;;;27.10;3.60;;;;;;;;;;5012475;28;20319;-74
2023/12/22 06:23:31;;;;;;;19.50;2.33;;;;;;;;;;5030732;28;20205;-74
2023/12/22 06:25:57;;;;;;;16.30;2.37;;;;;;;;;;5012919;28;20194;-74
2023/12/22 06:28:22;;;;;;;25.13;2.90;;;;;;;;;;5030275;28;20229;-74
2023/12/22 06:30:48;;;;;;;17.10;2.67;;;;;;;;;;5010834;28;20273;-74
2023/12/22 06:33:13;;;;;;;18.70;2.70;;;;;;;;;;5022022;28;20276;-74
2023/12/22 06:35:41;;;;;;;20.60;3.60;;;;;;;;;;5021442;28;20190;-74
2023/12/22 06:38:06;;;;;;;14.40;2.53;;;;;;;;;;5023617;28;20186;-74
2023/12/22 06:40:34;;;;;;;22.27;2.83;;;;;;;;;;5027812;28;20228;-74
2023/12/22 06:43:00;;;;;;;24.53;2.87;;;;;;;;;;5011123;28;20653;-74
2023/12/22 06:45:25;;;;;;;21.03;2.90;;;;;;;;;;5009769;28;20198;-74
2023/12/22 06:47:50;;;;;;;17.60;2.63;;;;;;;;;;5029487;28;20182;-74
2023/12/22 06:50:16;;;;;;;15.20;1.87;;;;;;;;;;5024625;28;20554;-74
2023/12/22 06:52:41;;;;;;;12.45;1.88;;;;;;;;;;5024244;28;20190;-74
2023/12/22 06:55:07;;;;;;;9.90;1.97;;;;;;;;;;5026674;28;20561;-74
2023/12/22 06:57:32;;;;;;;10.93;1.93;;;;;;;;;;5023983;28;20190;-74
2023/12/22 06:59:58;;;;;;;20.20;2.93;;;;;;;;;;5024844;28;20209;-74
2023/12/22 07:02:23;;;;;;;18.43;3.13;;;;;;;;;;5029053;28;20237;-75
2023/12/22 07:05:22;;;;;;;13.37;2.33;;;;;;;;;;5029493;28;20197;-74
2023/12/22 07:07:48;;;;;;;15.57;2.43;;;;;;;;;;5010867;28;20208;-74
2023/12/22 07:10:14;;;;;;;29.95;3.70;;;;;;;;;;5027630;28;20433;-75
2023/12/22 07:12:39;;;;;;;20.70;2.83;;;;;;;;;;5011468;28;20196;-74
2023/12/22 07:15:06;;;;;;;22.63;3.27;;;;;;;;;;5024531;28;20662;-74
2023/12/22 07:17:32;;;;;;;17.87;2.40;;;;;;;;;;5023459;28;20634;-75
2023/12/22 07:19:58;;;;;;;20.93;2.40;;;;;;;;;;5006209;28;20253;-75
2023/12/22 07:22:23;;;;;;;21.03;2.33;;;;;;;;;;5007318;28;20222;-77
2023/12/22 07:24:49;;;;;;;15.13;2.00;;;;;;;;;;4999900;28;20213;-78
2023/12/22 07:27:15;;;;;;;19.70;3.00;;;;;;;;;;5030017;28;20198;-79
2023/12/22 07:29:41;;;;;;;15.40;2.40;;;;;;;;;;5032363;28;20193;-78
2023/12/22 07:32:06;;;;;;;18.97;2.43;;;;;;;;;;5007321;28;20178;-79
2023/12/22 07:34:32;;;;;;;11.47;1.63;;;;;;;;;;5000203;28;20200;-77
2023/12/22 07:36:57;;;;;;;12.47;1.70;;;;;;;;;;5024156;28;20182;-77
2023/12/22 07:39:23;;;;;;;14.47;1.50;;;;;;;;;;5027378;28;20206;-77
2023/12/22 07:41:48;;;;;;;15.23;2.17;;;;;;;;;;5007044;28;20336;-78
2023/12/22 07:44:14;;;;;;;11.60;1.20;;;;;;;;;;5025720;28;20279;-78
2023/12/22 07:46:39;;;;;;;10.57;1.67;;;;;;;;;;4992344;28;20573;-77
2023/12/22 07:49:05;;;;;;;9.00;1.73;;;;;;;;;;5023168;28;20558;-77
2023/12/22 07:51:30;;;;;;;18.97;2.00;;;;;;;;;;4985010;28;20188;-77
2023/12/22 07:53:55;;;;;;;11.37;1.40;;;;;;;;;;5011819;28;20661;-78
2023/12/22 07:56:21;;;;;;;11.23;1.60;;;;;;;;;;5012019;28;20186;-78
2023/12/22 07:58:46;;;;;;;16.00;1.80;;;;;;;;;;5012912;28;20276;-78
2023/12/22 08:01:12;;;;;;;14.97;1.87;;;;;;;;;;5011071;28;20737;-79
2023/12/22 08:03:37;;;;;;;14.50;2.47;;;;;;;;;;4991678;28;20292;-78
2023/12/22 08:06:03;;;;;;;11.73;1.40;;;;;;;;;;5026227;28;20278;-78
2023/12/22 08:08:29;;;;;;;14.40;1.93;;;;;;;;;;5028102;28;20216;-78
2023/12/22 08:10:54;;;;;;;11.67;1.60;;;;;;;;;;5022681;28;20183;-77
2023/12/22 08:13:20;;;;;;;12.63;2.00;;;;;;;;;;5019900;28;20216;-78
2023/12/22 08:15:45;;;;;;;14.43;1.40;;;;;;;;;;5010345;28;20625;-78
2023/12/22 08:18:11;;;;;;;11.07;1.57;;;;;;;;;;5015841;28;20218;-78
2023/12/22 08:20:37;;;;;;;11.97;1.40;;;;;;;;;;5013182;28;20213;-77
2023/12/22 08:23:02;;;;;;;9.30;1.50;;;;;;;;;;5009972;28;20186;-77
2023/12/22 08:25:28;;;;;;;16.97;2.20;;;;;;;;;;5011819;28;20247;-78
2023/12/22 08:27:53;;;;;;;12.30;1.40;;;;;;;;;;5013245;28;20247;-77
2023/12/22 08:30:19;;;;;;;12.40;1.73;;;;;;;;;;5010528;28;20194;-77
2023/12/22 08:32:44;;;;;;;13.37;2.03;;;;;;;;;;5020591;28;20206;-76
2023/12/22 08:35:10;;;;;;;11.73;1.40;;;;;;;;;;5007863;28;20410;-76
2023/12/22 08:37:37;;;;;;;12.47;1.30;;;;;;;;;;5010952;28;20649;-74
2023/12/22 08:40:03;;;;;;;12.10;2.00;;;;;;;;;;5009895;28;20201;-75
2023/12/22 08:42:30;;;;;;;5.67;0.90;;;;;;;;;;5028970;28;20194;-75
2023/12/22 08:44:55;;;;;;;7.97;1.10;;;;;;;;;;5027099;28;20194;-76
2023/12/22 08:47:21;;;;;;;12.97;1.30;;;;;;;;;;4994429;28;20182;-76
2023/12/22 08:49:46;;;;;;;7.20;1.13;;;;;;;;;;5026847;28;20660;-78
2023/12/22 08:52:13;;;;;;;7.77;0.90;;;;;;;;;;5010777;28;20680;-77
2023/12/22 08:54:38;;;;;;;10.50;1.13;;;;;;;;;;5018133;28;20272;-78
2023/12/22 08:57:04;;;;;;;6.03;1.57;;;;;;;;;;5014740;28;20558;-77
2023/12/22 08:59:29;;;;;;;5.23;1.10;;;;;;;;;;5012525;28;20217;-77
2023/12/22 09:01:55;;;;;;;10.70;2.07;;;;;;;;;;5028866;28;20182;-76
2023/12/22 09:04:22;;;;;;;13.43;1.63;;;;;;;;;;5011283;28;20212;-75
2023/12/22 09:06:48;;;;;;;6.40;1.17;;;;;;;;;;4992906;28;20190;-77
2023/12/22 09:09:14;;;;;;;7.93;1.13;;;;;;;;;;5014927;28;20182;-75
2023/12/22 09:11:39;;;;;;;10.37;1.33;;;;;;;;;;5012977;28;20285;-75
2023/12/22 09:14:09;;;;;;;10.70;1.73;;;;;;;;;;5024639;28;20631;-75
2023/12/22 09:16:35;;;;;;;7.27;1.60;;;;;;;;;;5027764;28;20189;-75
2023/12/22 09:19:00;;;;;;;7.53;1.27;;;;;;;;;;5010293;28;20217;-76
2023/12/22 09:21:26;;;;;;;7.67;1.40;;;;;;;;;;5020898;28;20198;-75
2023/12/22 09:23:51;;;;;;;11.87;1.53;;;;;;;;;;5025566;28;20625;-76
2023/12/22 09:26:17;;;;;;;9.97;1.53;;;;;;;;;;5022946;28;20222;-76
2023/12/22 09:28:44;;;;;;;13.40;2.17;;;;;;;;;;4996116;28;20193;-76
2023/12/22 09:31:10;;;;;;;12.17;1.87;;;;;;;;;;5016620;28;20197;-75
2023/12/22 09:33:36;;;;;;;11.43;1.73;;;;;;;;;;4997653;28;20201;-75
2023/12/22 09:36:02;;;;;;;9.77;2.60;;;;;;;;;;5013467;28;20194;-76
2023/12/22 09:38:29;;;;;;;17.03;2.40;;;;;;;;;;5018025;28;20537;-77
2023/12/22 09:40:56;;;;;;;12.40;1.93;;;;;;;;;;4995955;28;20201;-79
2023/12/22 09:43:21;;;;;;;11.67;1.83;;;;;;;;;;5014734;28;20186;-78
2023/12/22 09:45:49;;;;;;;16.67;2.00;;;;;;;;;;5010711;28;20190;-78
2023/12/22 09:48:17;;;;;;;11.47;1.60;;;;;;;;;;5014212;28;20197;-80
2023/12/22 09:50:44;;;;;;;13.47;1.90;;;;;;;;;;5013467;28;20183;-79
2023/12/22 09:53:13;;;;;;;13.17;2.60;;;;;;;;;;5032242;28;20190;-78
2023/12/22 09:55:45;;;;;;;17.73;2.67;;;;;;;;;;4999437;28;20206;-77
2023/12/22 09:58:13;;;;;;;11.70;1.97;;;;;;;;;;5000530;28;20217;-80
2023/12/22 10:00:39;;;;;;;11.73;2.37;;;;;;;;;;5000239;28;20202;-79
2023/12/22 10:03:07;;;;;;;12.80;2.07;;;;;;;;;;5034878;28;20205;-78
2023/12/22 10:05:33;;;;;;;12.60;2.80;;;;;;;;;;5017436;28;20661;-79
2023/12/22 10:08:00;;;;;;;18.03;2.30;;;;;;;;;;5017896;28;20187;-80
2023/12/22 10:10:29;;;;;;;11.93;1.70;;;;;;;;;;4989831;28;20179;-79
2023/12/22 10:12:54;;;;;;;13.70;1.30;;;;;;;;;;5015272;28;20187;-79
2023/12/22 10:15:23;;;;;;;10.43;1.83;;;;;;;;;;4995767;28;20660;-78
2023/12/22 10:17:50;;;;;;;10.77;1.73;;;;;;;;;;5034643;28;20213;-78
2023/12/22 10:20:16;;;;;;;8.53;1.83;;;;;;;;;;4998858;28;20239;-79
2023/12/22 10:22:41;;;;;;;12.73;2.17;;;;;;;;;;5001324;28;20195;-78
2023/12/22 10:25:08;;;;;;;8.13;1.40;;;;;;;;;;4995915;28;20254;-80
2023/12/22 10:27:36;;;;;;;9.93;1.40;;;;;;;;;;5006158;28;20195;-80
2023/12/22 10:30:03;;;;;;;10.93;1.90;;;;;;;;;;5013242;28;20590;-80
2023/12/22 10:32:29;;;;;;;6.57;1.30;;;;;;;;;;5016678;28;20191;-79
2023/12/22 10:34:56;;;;;;;10.10;1.23;;;;;;;;;;5010658;28;20396;-79
2023/12/22 10:37:23;;;;;;;11.17;1.30;;;;;;;;;;4985365;28;20238;-80
2023/12/22 10:39:53;;;;;;;4.97;1.20;;;;;;;;;;4995448;28;20798;-79
2023/12/22 10:42:19;;;;;;;6.17;1.10;;;;;;;;;;5014865;28;20206;-79
2023/12/22 10:44:45;;;;;;;6.70;1.00;;;;;;;;;;5013706;28;20249;-79
2023/12/22 10:47:10;;;;;;;7.27;1.70;;;;;;;;;;5027189;28;20199;-82
2023/12/22 10:49:36;;;;;;;3.57;0.77;;;;;;;;;;5011907;28;20229;-79
2023/12/22 10:52:02;;;;;;;5.03;0.80;;;;;;;;;;5009310;28;20724;-80
2023/12/22 10:54:27;;;;;;;7.90;0.80;;;;;;;;;;5005545;28;20195;-79
2023/12/22 10:56:58;;;;;;;4.20;0.70;;;;;;;;;;4991761;28;20635;-79
2023/12/22 10:59:28;;;;;;;3.63;0.97;;;;;;;;;;4992447;28;20531;-78
2023/12/22 11:01:56;;;;;;;5.00;0.63;;;;;;;;;;4999196;28;20247;-78
2023/12/22 11:04:22;;;;;;;4.77;0.57;;;;;;;;;;4991978;28;20187;-79
2023/12/22 11:06:51;;;;;;;7.77;1.10;;;;;;;;;;5016147;28;20187;-79
2023/12/22 11:09:20;;;;;;;3.57;0.70;;;;;;;;;;5006549;28;20191;-81
2023/12/22 11:11:47;;;;;;;3.43;0.47;;;;;;;;;;4984616;28;20198;-80
2023/12/22 11:14:13;;;;;;;2.97;0.70;;;;;;;;;;4996547;28;20184;-80
2023/12/22 11:16:41;;;;;;;3.87;0.90;;;;;;;;;;4997553;28;20290;-80
2023/12/22 11:19:07;;;;;;;4.53;0.50;;;;;;;;;;5007187;28;20239;-81
2023/12/22 11:21:35;;;;;;;2.40;0.57;;;;;;;;;;4995801;28;20210;-80
2023/12/22 11:24:03;;;;;;;5.57;0.70;;;;;;;;;;5030811;28;20720;-80
2023/12/22 11:26:30;;;;;;;4.73;0.67;;;;;;;;;;5012463;28;20269;-80
2023/12/22 11:28:56;;;;;;;3.47;1.00;;;;;;;;;;5013732;28;20189;-79
2023/12/22 11:31:25;;;;;;;4.33;1.27;;;;;;;;;;5006015;28;20191;-79
2023/12/22 11:33:50;;;;;;;3.00;0.50;;;;;;;;;;5013823;28;20175;-79
2023/12/22 11:36:17;;;;;;;4.73;0.70;;;;;;;;;;5012839;28;20307;-79
2023/12/22 11:38:44;;;;;;;3.27;0.60;;;;;;;;;;5000812;28;20182;-76
2023/12/22 11:41:16;;;;;;;5.73;0.67;;;;;;;;;;5029013;28;20445;-78
2023/12/22 11:43:44;;;;;;;4.17;0.93;;;;;;;;;;5017146;28;20255;-77
2023/12/22 11:46:10;;;;;;;3.33;0.40;;;;;;;;;;5011655;28;20191;-77
2023/12/22 11:48:36;;;;;;;2.87;0.60;;;;;;;;;;5027311;28;20201;-78
2023/12/22 11:51:13;;;;;;;4.20;0.40;;;;;;;;;;5012799;28;20182;-77
2023/12/22 11:53:38;;;;;;;3.03;0.33;;;;;;;;;;5012409;28;20264;-76
2023/12/22 11:56:07;;;;;;;3.43;0.30;;;;;;;;;;5030483;28;20623;-79
2023/12/22 11:58:40;;;;;;;1.40;0.20;;;;;;;;;;5016784;28;20199;-78
2023/12/22 12:01:10;;;;;;;3.13;0.30;;;;;;;;;;5009533;28;20214;-78
2023/12/22 12:03:58;;;;;;;1.30;0.30;;;;;;;;;;4995499;28;20751;-78
2023/12/22 12:06:27;;;;;;;4.93;0.30;;;;;;;;;;5013849;28;20194;-78
2023/12/22 12:09:03;;;;;;;4.87;0.67;;;;;;;;;;5022376;28;20559;-77
2023/12/22 12:11:52;;;;;;;6.57;0.90;;;;;;;;;;5032250;28;20548;-80
2023/12/22 12:14:22;;;;;;;3.17;0.40;;;;;;;;;;4996512;28;20209;-80
2023/12/22 12:16:49;;;;;;;1.10;0.50;;;;;;;;;;5031758;28;20182;-80
2023/12/22 12:19:14;;;;;;;3.83;0.90;;;;;;;;;;5028124;28;20229;-79
2023/12/22 12:21:40;;;;;;;5.43;0.90;;;;;;;;;;5021072;28;20201;-79
2023/12/22 12:24:06;;;;;;;3.17;0.40;;;;;;;;;;5031148;28;20286;-77
2023/12/22 12:26:35;;;;;;;1.03;0.40;;;;;;;;;;5007109;28;20197;-78
2023/12/22 12:29:01;;;;;;;2.57;0.43;;;;;;;;;;4992907;28;20249;-77
2023/12/22 12:31:41;;;;;;;3.60;0.40;;;;;;;;;;5028504;28;20643;-78
2023/12/22 12:34:08;;;;;;;3.97;0.50;;;;;;;;;;5007930;28;20194;-78
2023/12/22 12:36:34;;;;;;;4.10;0.37;;;;;;;;;;4998235;28;20190;-77
2023/12/22 12:39:09;;;;;;;2.10;0.50;;;;;;;;;;4998963;28;20637;-77
2023/12/22 12:41:46;;;;;;;3.33;0.63;;;;;;;;;;5030616;28;20194;-79
2023/12/22 12:44:12;;;;;;;4.20;1.07;;;;;;;;;;5022101;28;20197;-79
2023/12/22 12:46:39;;;;;;;1.50;1.00;;;;;;;;;;5015809;28;20201;-79
2023/12/22 12:49:06;;;;;;;3.07;0.97;;;;;;;;;;5015404;28;20182;-78
2023/12/22 12:51:38;;;;;;;6.70;1.43;;;;;;;;;;5027632;28;20190;-79
2023/12/22 12:54:05;;;;;;;5.07;0.50;;;;;;;;;;5031053;28;20248;-80
2023/12/22 12:56:42;;;;;;;2.57;0.50;;;;;;;;;;5024746;28;20240;-80
2023/12/22 12:59:09;;;;;;;4.23;0.47;;;;;;;;;;4989954;28;20222;-79
2023/12/22 13:01:41;;;;;;;4.73;1.03;;;;;;;;;;5023977;28;20642;-76
2023/12/22 13:04:07;;;;;;;3.47;0.57;;;;;;;;;;5022566;28;20187;-78
2023/12/22 13:06:33;;;;;;;5.23;0.80;;;;;;;;;;5023943;28;20197;-78
2023/12/22 13:08:58;;;;;;;4.33;0.60;;;;;;;;;;5013124;28;20599;-78
2023/12/22 13:11:26;;;;;;;3.33;0.40;;;;;;;;;;5014195;28;20186;-79
2023/12/22 13:13:52;;;;;;;3.50;0.53;;;;;;;;;;4999229;28;20630;-80
2023/12/22 13:16:26;;;;;;;4.53;0.87;;;;;;;;;;5025467;28;20178;-79
2023/12/22 13:18:52;;;;;;;5.40;0.50;;;;;;;;;;4999504;28;20233;-79
2023/12/22 13:21:17;;;;;;;3.77;0.80;;;;;;;;;;5032578;28;20194;-77
2023/12/22 13:23:43;;;;;;;0.80;0.30;;;;;;;;;;5014299;28;20199;-79
2023/12/22 13:26:19;;;;;;;2.58;0.52;;;;;;;;;;4673083;28;9999818;-79
2023/12/22 13:28:44;;;;;;;3.50;0.70;;;;;;;;;;4996975;28;20182;-77
2023/12/22 13:31:13;;;;;;;4.37;0.83;;;;;;;;;;5043246;28;20193;-79
2023/12/22 13:33:39;;;;;;;4.53;0.60;;;;;;;;;;4993895;28;20183;-79
2023/12/22 13:36:05;;;;;;;4.07;0.70;;;;;;;;;;5033059;28;20186;-79
2023/12/22 13:38:33;;;;;;;3.30;0.40;;;;;;;;;;5011698;28;20643;-79
2023/12/22 13:41:02;;;;;;;3.73;0.40;;;;;;;;;;5000377;28;20212;-79
2023/12/22 13:43:31;;;;;;;6.30;0.40;;;;;;;;;;5000534;28;20217;-79
2023/12/22 13:45:57;;;;;;;1.40;0.73;;;;;;;;;;5020520;28;20218;-78
2023/12/22 13:48:23;;;;;;;4.33;0.57;;;;;;;;;;5015193;28;20202;-78
2023/12/22 13:50:57;;;;;;;1.23;0.33;;;;;;;;;;5017003;28;20197;-77
2023/12/22 13:53:23;;;;;;;2.67;0.40;;;;;;;;;;5007477;28;20226;-78
2023/12/22 13:56:01;;;;;;;1.60;0.40;;;;;;;;;;5025053;28;20231;-79
2023/12/22 13:58:27;;;;;;;5.03;0.50;;;;;;;;;;5018669;28;20270;-80
2023/12/22 14:00:53;;;;;;;4.20;0.47;;;;;;;;;;5014821;28;20479;-80
2023/12/22 14:03:22;;;;;;;2.97;0.30;;;;;;;;;;5029712;28;20677;-80
2023/12/22 14:05:49;;;;;;;4.67;0.60;;;;;;;;;;5005521;28;20198;-80
2023/12/22 14:08:15;;;;;;;1.83;0.30;;;;;;;;;;5013554;28;20709;-79
2023/12/22 14:10:50;;;;;;;2.60;0.50;;;;;;;;;;5014322;28;20221;-78
2023/12/22 14:13:15;;;;;;;0.50;0.20;;;;;;;;;;5015598;28;20272;-78
2023/12/22 14:15:44;;;;;;;4.97;0.60;;;;;;;;;;5019981;28;20225;-80
2023/12/22 14:18:10;;;;;;;4.77;0.60;;;;;;;;;;5018226;28;20274;-77
2023/12/22 14:20:36;;;;;;;4.93;0.60;;;;;;;;;;5015096;28;20215;-80
2023/12/22 14:23:02;;;;;;;3.23;0.60;;;;;;;;;;5029498;28;20189;-81
2023/12/22 14:25:27;;;;;;;6.17;1.33;;;;;;;;;;5019176;28;20196;-79
2023/12/22 14:27:57;;;;;;;3.87;1.00;;;;;;;;;;5028840;28;20199;-80
2023/12/22 14:30:23;;;;;;;4.23;0.60;;;;;;;;;;5040125;28;20183;-78
2023/12/22 14:32:48;;;;;;;5.67;1.00;;;;;;;;;;5030533;28;20280;-80